Rechercher aéroport 
image banner adimage banner ad
image banner ad

LIEE - Cagliari/Elmas

Situé à Cagliari, Italy

ICAO - LIEE, IATA - CAG

Données fournies par Airmate  

Information générale

Coordonnées: N39°14'50" E9°3'22"
Élévation : 11 feet MSL.
 
Évalué:
Voir évaluations:
[VIEW]
Voir autres Aéroports à Sardinia

Données opérationnelles

Accessible au public
Heure actuelle UTC:
Heure actuelle locale:
Météo
METAR: LIEE 261150Z 33027G38KT 9999 SCT035 21/06 Q1007
TAF: TAF LIEE 261100Z 2612/2712 29025G35KT 9999 SCT025 TEMPO 2703/2709 4000 TSRA
Voir NOTAMs / SUP AIP / TFR affectant cet aéroport [VIEW]
Fréquences de communication: [VIEW]

Pistes:

Identifiant RWYQFULongueur (ft)Largeur (ft)SurfaceLDA (ft)
149199147ASPH
329199147ASPH

Coordonnées de l'aéroport

Adresse: Cagliari Italy

Autres services d'aviation

Clubs d'aviation (sans but lucratif)

Aero Club Cagliai

Aero Club Cagliai

Vue satellite de LIEE